createdAt,value
2017-10-09T00:04:58.324Z,99972.18
2017-10-09T00:07:24.611Z,99973.25
2017-10-09T00:09:51.661Z,99968.36
2017-10-09T00:19:55.552Z,99976.42
2017-10-09T00:22:21.840Z,99972.55
2017-10-09T00:27:20.024Z,99981.70
2017-10-09T00:29:47.404Z,99974.33
2017-10-09T00:32:14.443Z,99973.95
2017-10-09T00:34:41.491Z,99980.45
2017-10-09T00:37:08.516Z,99974.75
2017-10-09T00:44:39.400Z,99975.20
2017-10-09T00:49:38.347Z,99971.98
2017-10-09T00:54:36.623Z,99972.53
2017-10-09T00:59:36.204Z,99968.55
2017-10-09T01:04:35.380Z,99970.72
2017-10-09T01:07:01.647Z,99962.88
2017-10-09T01:09:27.953Z,99963.87
2017-10-09T01:11:54.200Z,99958.13
2017-10-09T01:16:52.503Z,99964.72
2017-10-09T01:21:50.764Z,99959.83
2017-10-09T01:24:17.129Z,99949.53
2017-10-09T01:26:43.372Z,99955.58
2017-10-09T01:29:09.742Z,99953.98
2017-10-09T01:31:36.035Z,99952.14
2017-10-09T01:41:38.867Z,99961.96
2017-10-09T01:44:05.229Z,99962.34
2017-10-09T01:49:04.309Z,99950.45
2017-10-09T01:56:36.004Z,99950.42
2017-10-09T01:59:02.279Z,99957.75
2017-10-09T02:01:28.573Z,99950.77
2017-10-09T02:06:26.875Z,99944.70
2017-10-09T02:16:29.606Z,99964.70
2017-10-09T02:18:55.928Z,99963.22
2017-10-09T02:23:55.658Z,99962.00
2017-10-09T02:26:21.914Z,99960.89
2017-10-09T02:28:48.163Z,99966.35
2017-10-09T02:31:14.440Z,99972.13
2017-10-09T02:46:20.679Z,99973.09
2017-10-09T02:56:23.615Z,99978.94
2017-10-09T03:01:21.940Z,99981.79
2017-10-09T03:03:48.213Z,99980.97
2017-10-09T03:08:46.312Z,99976.39
2017-10-09T03:11:12.637Z,99975.70
2017-10-09T03:16:10.868Z,99969.23
2017-10-09T03:35:56.238Z,99968.34
2017-10-09T03:38:22.568Z,99978.16
2017-10-09T03:40:48.887Z,99967.94
2017-10-09T03:55:56.081Z,99981.80
2017-10-09T04:00:54.418Z,99994.67
2017-10-09T04:05:53.683Z,99991.97
2017-10-09T04:10:52.027Z,99991.29
2017-10-09T04:13:19.077Z,99989.66
2017-10-09T04:15:46.091Z,99993.11
2017-10-09T04:18:12.452Z,99994.91
2017-10-09T04:23:10.806Z,99987.85
2017-10-09T04:25:37.152Z,99995.22
2017-10-09T04:28:03.452Z,99994.95
2017-10-09T04:33:01.854Z,99988.83
2017-10-09T04:40:32.337Z,99992.74
2017-10-09T04:42:58.649Z,99997.74
2017-10-09T04:45:25.056Z,100004.91
2017-10-09T04:50:23.376Z,100009.09
2017-10-09T04:57:53.835Z,100000.16
2017-10-09T05:05:24.517Z,99997.25
2017-10-09T05:10:22.888Z,99998.34
2017-10-09T05:25:30.077Z,99997.64
2017-10-09T05:30:28.500Z,100007.05
2017-10-09T05:35:26.865Z,100009.70
2017-10-09T05:37:53.181Z,100011.47
2017-10-09T05:47:56.648Z,100012.75
2017-10-09T05:53:03.565Z,100007.39
2017-10-09T05:55:29.918Z,100004.33
2017-10-09T05:57:57.030Z,100005.91
2017-10-09T06:05:27.694Z,100006.77
2017-10-09T06:10:26.185Z,100000.14
2017-10-09T06:15:24.878Z,100001.82
2017-10-09T06:17:51.313Z,99996.97
2017-10-09T06:20:17.665Z,99999.66
2017-10-09T06:27:48.251Z,100005.11
2017-10-09T06:30:14.756Z,100011.91
2017-10-09T06:32:48.062Z,100016.92
2017-10-09T06:47:56.316Z,100020.53
2017-10-09T06:50:23.413Z,100026.92
2017-10-09T06:52:49.803Z,100013.45
2017-10-09T07:00:20.259Z,100018.67
2017-10-09T07:05:19.378Z,100020.25
2017-10-09T07:07:45.899Z,100019.28
2017-10-09T07:10:12.970Z,100024.02
2017-10-09T07:12:39.321Z,100019.13
2017-10-09T07:17:37.743Z,100028.72
2017-10-09T07:20:04.345Z,100033.08
2017-10-09T07:35:18.189Z,100025.83
2017-10-09T07:37:44.641Z,100028.10
2017-10-09T07:42:43.209Z,100017.39
2017-10-09T07:50:13.652Z,100022.69
2017-10-09T07:52:40.705Z,100010.40
2017-10-09T08:02:44.595Z,100027.99
2017-10-09T08:17:51.214Z,100038.85
2017-10-09T08:20:18.332Z,100042.46
2017-10-09T08:25:16.745Z,100054.66
2017-10-09T08:27:43.263Z,100057.97
2017-10-09T08:35:13.517Z,100049.67
2017-10-09T08:40:11.685Z,100050.69
2017-10-09T08:42:38.008Z,100061.14
2017-10-09T08:50:08.473Z,100062.80
2017-10-09T09:00:10.980Z,100074.67
2017-10-09T09:02:37.333Z,100074.09
2017-10-09T09:05:03.667Z,100073.76
2017-10-09T09:10:02.408Z,100076.13
2017-10-09T09:12:28.730Z,100087.02
2017-10-09T09:14:55.054Z,100081.13
2017-10-09T09:22:25.442Z,100087.58
2017-10-09T09:24:51.708Z,100082.56
2017-10-09T09:27:18.070Z,100090.66
2017-10-09T09:34:49.245Z,100071.73
2017-10-09T09:37:15.582Z,100076.23
2017-10-09T09:39:41.912Z,100074.89
2017-10-09T09:42:08.218Z,100079.41
2017-10-09T09:47:07.585Z,100073.40
2017-10-09T09:52:06.689Z,100074.14
2017-10-09T09:54:33.028Z,100075.63
2017-10-09T09:56:59.343Z,100070.26
2017-10-09T10:07:02.583Z,100072.25
2017-10-09T10:09:28.837Z,100070.33
2017-10-09T10:19:32.170Z,100073.38
2017-10-09T10:27:03.286Z,100072.28
2017-10-09T10:34:34.628Z,100058.77
2017-10-09T10:42:04.966Z,100050.17
2017-10-09T10:52:09.820Z,100041.30
2017-10-09T10:54:36.088Z,100032.09
2017-10-09T10:57:03.223Z,100035.16
2017-10-09T10:59:29.543Z,100041.38
2017-10-09T11:12:04.745Z,100024.47
2017-10-09T11:17:03.258Z,100029.89
2017-10-09T11:22:01.730Z,100036.80
2017-10-09T11:24:28.754Z,100028.34
2017-10-09T11:31:58.976Z,100028.16
2017-10-09T11:36:57.331Z,100010.31
2017-10-09T11:52:07.621Z,100010.84
2017-10-09T11:54:33.945Z,100007.52
2017-10-09T11:57:00.273Z,100011.62
2017-10-09T11:59:26.589Z,100007.73
2017-10-09T12:01:52.919Z,99999.05
2017-10-09T12:04:19.278Z,99994.52
2017-10-09T12:06:45.613Z,99979.18
2017-10-09T12:11:44.938Z,100004.78
2017-10-09T12:19:15.565Z,100003.45
2017-10-09T12:21:41.975Z,100008.03
2017-10-09T12:24:09.061Z,100000.29
2017-10-09T12:26:35.450Z,99989.26
2017-10-09T12:36:37.938Z,99989.09
2017-10-09T12:39:04.306Z,99992.93
2017-10-09T12:41:30.694Z,99997.52
2017-10-09T12:49:03.772Z,100005.77
2017-10-09T12:56:35.100Z,99999.83
2017-10-09T12:59:01.435Z,100003.52
2017-10-09T13:04:00.425Z,99981.86
2017-10-09T13:06:26.740Z,99979.75
2017-10-09T13:11:25.240Z,99976.59
2017-10-09T13:13:52.318Z,99978.33
2017-10-09T13:23:55.399Z,99970.03
2017-10-09T13:26:22.856Z,99973.52
2017-10-09T13:31:21.480Z,99983.50
2017-10-09T13:33:48.540Z,99974.30
2017-10-09T13:36:15.666Z,99974.33
2017-10-09T13:41:14.006Z,99973.20
2017-10-09T13:43:40.962Z,99969.63
2017-10-09T13:51:12.750Z,99965.53
2017-10-09T13:56:11.311Z,99971.03
2017-10-09T13:58:38.726Z,99966.23
2017-10-09T14:11:14.219Z,99959.39
2017-10-09T14:21:18.874Z,99927.05
2017-10-09T14:26:18.114Z,99941.55
2017-10-09T14:28:44.378Z,99923.59
2017-10-09T14:31:10.668Z,99929.31
2017-10-09T14:40:56.645Z,99913.54
2017-10-09T14:43:23.152Z,99923.16
2017-10-09T14:45:49.466Z,99924.83
2017-10-09T14:48:15.847Z,99920.41
2017-10-09T14:50:42.153Z,99930.64
2017-10-09T14:53:15.607Z,99916.33
2017-10-09T14:55:42.678Z,99920.64
2017-10-09T14:58:09.082Z,99917.23
2017-10-09T15:00:35.447Z,99918.56
2017-10-09T15:03:01.760Z,99909.30
2017-10-09T15:05:28.854Z,99910.55
2017-10-09T15:07:55.223Z,99915.97
2017-10-09T15:10:21.654Z,99916.61
2017-10-09T15:12:48.033Z,99910.83
2017-10-09T15:15:15.483Z,99912.28
2017-10-09T15:17:41.975Z,99910.02
2017-10-09T15:20:08.483Z,99903.06
2017-10-09T15:22:34.793Z,99901.52
2017-10-09T15:25:01.285Z,99903.64
2017-10-09T15:27:28.425Z,99907.33
2017-10-09T15:29:54.767Z,99907.37
2017-10-09T15:32:21.085Z,99910.63
2017-10-09T15:34:47.657Z,99902.54
2017-10-09T15:37:14.825Z,99905.43
2017-10-09T15:39:41.238Z,99906.12
2017-10-09T15:42:08.289Z,99904.20
2017-10-09T15:44:35.468Z,99893.91
2017-10-09T15:47:01.914Z,99903.69
2017-10-09T15:49:28.232Z,99905.93
2017-10-09T15:51:54.670Z,99899.58
2017-10-09T15:54:21.103Z,99909.61
2017-10-09T15:56:47.440Z,99906.61
2017-10-09T15:59:13.876Z,99910.92
2017-10-09T16:01:40.316Z,99907.43
2017-10-09T16:04:06.676Z,99915.17
2017-10-09T16:06:32.994Z,99916.23
2017-10-09T16:08:59.391Z,99914.88
2017-10-09T16:11:25.754Z,99926.70
2017-10-09T16:13:52.258Z,99922.99
2017-10-09T16:16:20.063Z,99925.00
2017-10-09T16:18:46.468Z,99916.92
2017-10-09T16:21:12.818Z,99915.29
2017-10-09T16:23:39.200Z,99915.05
2017-10-09T16:26:06.675Z,99908.55
2017-10-09T16:28:33.043Z,99913.38
2017-10-09T16:30:59.464Z,99914.20
2017-10-09T16:33:26.011Z,99918.02
2017-10-09T16:35:52.409Z,99913.20
2017-10-09T16:38:18.738Z,99910.78
2017-10-09T16:40:45.061Z,99906.80
2017-10-09T16:43:11.433Z,99914.91
2017-10-09T16:45:37.803Z,99914.75
2017-10-09T16:48:04.870Z,99912.46
2017-10-09T16:50:31.182Z,99910.98
2017-10-09T16:52:58.302Z,99915.45
2017-10-09T16:55:24.658Z,99914.38
2017-10-09T16:57:51.748Z,99914.70
2017-10-09T17:00:18.362Z,99915.41
2017-10-09T17:02:44.814Z,99913.88
2017-10-09T17:05:11.258Z,99917.81
2017-10-09T17:07:37.694Z,99918.11
2017-10-09T17:10:04.500Z,99916.27
2017-10-09T17:12:31.617Z,99918.36
2017-10-09T17:14:58.090Z,99918.20
2017-10-09T17:17:24.442Z,99918.45
2017-10-09T17:19:50.824Z,99918.86
2017-10-09T17:22:17.979Z,99913.73
2017-10-09T17:24:44.338Z,99909.78
2017-10-09T17:27:10.669Z,99913.03
2017-10-09T17:29:37.149Z,99916.17
2017-10-09T17:32:04.459Z,99911.73
2017-10-09T17:34:30.867Z,99910.91
2017-10-09T17:36:57.212Z,99898.30
2017-10-09T17:39:24.349Z,99904.80
2017-10-09T17:41:50.626Z,99904.47
2017-10-09T17:44:17.171Z,99906.83
2017-10-09T17:46:43.458Z,99900.14
2017-10-09T17:49:10.658Z,99906.89
2017-10-09T17:51:37.228Z,99898.77
2017-10-09T17:54:03.566Z,99902.29
2017-10-09T17:56:29.930Z,99904.04
2017-10-09T17:58:56.272Z,99902.94
2017-10-09T18:01:22.678Z,99894.75
2017-10-09T18:03:49.766Z,99900.91
2017-10-09T18:06:16.230Z,99898.69
2017-10-09T18:08:42.567Z,99894.64
2017-10-09T18:11:09.082Z,99906.95
2017-10-09T18:13:35.443Z,99898.47
2017-10-09T18:16:02.627Z,99895.43
2017-10-09T18:18:29.005Z,99898.34
2017-10-09T18:20:55.380Z,99898.62
2017-10-09T18:23:22.494Z,99898.97
2017-10-09T18:25:49.759Z,99898.02
2017-10-09T18:28:16.109Z,99895.95
2017-10-09T18:30:43.187Z,99901.37
2017-10-09T18:33:09.551Z,99900.02
2017-10-09T18:35:35.891Z,99901.13
2017-10-09T18:38:02.324Z,99899.75
2017-10-09T18:40:28.698Z,99905.19
2017-10-09T18:42:55.014Z,99902.94
2017-10-09T18:45:22.094Z,99907.70
2017-10-09T18:47:48.510Z,99895.67
2017-10-09T18:50:14.902Z,99906.98
2017-10-09T18:52:41.343Z,99906.73
2017-10-09T18:55:08.525Z,99901.32
2017-10-09T18:57:36.157Z,99904.39
2017-10-09T19:00:02.719Z,99897.23
2017-10-09T19:02:29.872Z,99898.84
2017-10-09T19:04:56.291Z,99888.06
2017-10-09T19:07:23.525Z,99901.23
2017-10-09T19:09:49.957Z,99890.07
2017-10-09T19:12:16.529Z,99887.59
2017-10-09T19:14:43.125Z,99893.24
2017-10-09T19:17:10.266Z,99876.52
2017-10-09T19:19:36.687Z,99888.46
2017-10-09T19:22:03.121Z,99885.73
2017-10-09T19:24:29.757Z,99887.81
2017-10-09T19:26:56.464Z,99890.30
2017-10-09T19:29:22.988Z,99891.16
2017-10-09T19:31:50.051Z,99893.73
2017-10-09T19:34:16.376Z,99894.25
2017-10-09T19:36:42.730Z,99888.88
2017-10-09T19:39:09.308Z,99896.55
2017-10-09T19:41:36.748Z,99900.70
2017-10-09T19:44:03.244Z,99884.92
2017-10-09T19:46:29.931Z,99896.23
2017-10-09T19:48:56.443Z,99892.92
2017-10-09T19:51:22.997Z,99897.48
2017-10-09T19:53:49.583Z,99890.58
2017-10-09T19:56:16.011Z,99894.66
2017-10-09T19:58:42.397Z,99889.98
2017-10-09T20:01:09.513Z,99893.05
2017-10-09T20:03:36.000Z,99894.78
2017-10-09T20:06:02.530Z,99894.14
2017-10-09T20:08:28.994Z,99884.47
2017-10-09T20:10:55.376Z,99888.50
2017-10-09T20:13:21.828Z,99886.62
2017-10-09T20:15:48.314Z,99885.23
2017-10-09T20:18:14.679Z,99885.93
2017-10-09T20:20:43.336Z,99879.70
2017-10-09T20:23:09.792Z,99876.58
2017-10-09T20:25:36.220Z,99875.45
2017-10-09T20:28:03.423Z,99879.39
2017-10-09T20:30:29.906Z,99871.00
2017-10-09T20:32:56.243Z,99873.09
2017-10-09T20:35:22.621Z,99872.09
2017-10-09T20:37:49.013Z,99871.58
2017-10-09T20:40:15.375Z,99868.75
2017-10-09T20:42:41.939Z,99864.34
2017-10-09T20:45:08.995Z,99867.43
2017-10-09T20:47:35.467Z,99869.64
2017-10-09T20:50:01.933Z,99869.64
2017-10-09T20:52:28.374Z,99865.69
2017-10-09T20:54:54.861Z,99864.02
2017-10-09T20:57:21.258Z,99859.25
2017-10-09T20:59:48.341Z,99860.44
2017-10-09T21:02:14.722Z,99858.39
2017-10-09T21:04:41.941Z,99860.73
2017-10-09T21:07:08.258Z,99854.32
2017-10-09T21:09:34.611Z,99854.84
2017-10-09T21:12:00.989Z,99856.14
2017-10-09T21:14:28.154Z,99857.03
2017-10-09T21:16:54.646Z,99863.10
2017-10-09T21:19:21.753Z,99858.21
2017-10-09T21:21:48.063Z,99856.02
2017-10-09T21:24:14.428Z,99847.37
2017-10-09T21:26:40.766Z,99852.55
2017-10-09T21:29:07.090Z,99846.64
2017-10-09T21:31:33.458Z,99852.12
2017-10-09T21:34:00.589Z,99847.73
2017-10-09T21:36:26.929Z,99849.86
2017-10-09T21:38:53.205Z,99846.88
2017-10-09T21:41:19.543Z,99842.63
2017-10-09T21:43:45.895Z,99850.02
2017-10-09T21:46:12.247Z,99844.03
2017-10-09T21:48:38.497Z,99847.80
2017-10-09T21:51:04.799Z,99850.70
2017-10-09T21:53:31.141Z,99847.31
2017-10-09T21:55:57.435Z,99837.05
2017-10-09T21:58:23.756Z,99829.59
2017-10-09T22:00:50.067Z,99831.12
2017-10-09T22:03:17.130Z,99833.41
2017-10-09T22:05:43.442Z,99829.32
2017-10-09T22:08:10.478Z,99828.06
2017-10-09T22:10:36.770Z,99829.89
2017-10-09T22:13:03.148Z,99827.02
2017-10-09T22:15:30.189Z,99830.78
2017-10-09T22:17:57.332Z,99824.24
2017-10-09T22:20:23.668Z,99802.66
2017-10-09T22:22:49.929Z,99821.17
2017-10-09T22:25:16.193Z,99817.56
2017-10-09T22:27:42.502Z,99814.22
2017-10-09T22:30:08.840Z,99808.80
2017-10-09T22:32:35.162Z,99811.62
2017-10-09T22:35:01.448Z,99814.33
2017-10-09T22:37:27.912Z,99813.06
2017-10-09T22:39:54.282Z,99798.72
2017-10-09T22:42:20.605Z,99802.25
2017-10-09T22:44:46.936Z,99806.25
2017-10-09T22:47:13.265Z,99801.31
2017-10-09T22:49:39.589Z,99804.61
2017-10-09T22:52:05.931Z,99799.63
2017-10-09T22:54:41.370Z,99803.59
2017-10-09T22:57:07.772Z,99803.35
2017-10-09T22:59:34.111Z,99791.77
2017-10-09T23:02:00.470Z,99789.73
2017-10-09T23:04:26.809Z,99790.63
2017-10-09T23:06:53.134Z,99793.91
2017-10-09T23:09:19.501Z,99784.28
2017-10-09T23:11:45.810Z,99786.91
2017-10-09T23:14:12.103Z,99784.11
2017-10-09T23:16:38.460Z,99784.31
2017-10-09T23:19:04.792Z,99787.36
2017-10-09T23:21:31.129Z,99790.06
2017-10-09T23:23:57.487Z,99790.50
2017-10-09T23:26:23.819Z,99788.50
2017-10-09T23:28:50.159Z,99782.50
2017-10-09T23:31:16.507Z,99784.53
2017-10-09T23:33:43.674Z,99785.73
2017-10-09T23:36:09.993Z,99788.20
2017-10-09T23:38:37.050Z,99789.32
2017-10-09T23:41:03.403Z,99788.05
2017-10-09T23:43:29.712Z,99779.41
2017-10-09T23:45:56.122Z,99784.20
2017-10-09T23:48:23.226Z,99777.36
2017-10-09T23:50:49.523Z,99775.80
2017-10-09T23:53:16.569Z,99773.49
2017-10-09T23:55:43.640Z,99768.30
2017-10-09T23:58:09.944Z,99774.44
